createdAt,value
2022-10-05T00:02:26.115Z,6.22
2022-10-05T00:05:35.667Z,6.20
2022-10-05T00:08:44.606Z,6.22
2022-10-05T00:11:53.216Z,6.27
2022-10-05T00:15:03.628Z,6.23
2022-10-05T00:18:17.432Z,6.19
2022-10-05T00:21:28.134Z,6.09
2022-10-05T00:24:36.870Z,6.06
2022-10-05T00:27:52.534Z,6.03
2022-10-05T00:31:02.140Z,5.99
2022-10-05T00:34:11.821Z,5.96
2022-10-05T00:37:20.297Z,5.97
2022-10-05T00:40:41.987Z,6.03
2022-10-05T00:44:25.000Z,5.90
2022-10-05T00:47:55.691Z,5.89
2022-10-05T00:51:25.638Z,5.92
2022-10-05T00:54:46.402Z,5.98
2022-10-05T00:58:12.364Z,6.15
2022-10-05T01:01:32.401Z,6.07
2022-10-05T01:04:52.546Z,6.06
2022-10-05T01:08:18.218Z,5.96
2022-10-05T01:11:34.307Z,6.02
2022-10-05T01:14:57.057Z,5.84
2022-10-05T01:18:17.510Z,5.91
2022-10-05T01:21:28.349Z,6.00
2022-10-05T01:25:03.418Z,6.14
2022-10-05T01:28:23.449Z,6.10
2022-10-05T01:31:46.488Z,6.11
2022-10-05T01:35:06.308Z,6.13
2022-10-05T01:38:31.535Z,6.06
2022-10-05T01:41:54.864Z,5.99
2022-10-05T01:45:16.661Z,6.05
2022-10-05T01:48:44.240Z,6.02
2022-10-05T01:52:21.585Z,6.06
2022-10-05T01:55:40.549Z,6.10
2022-10-05T01:59:02.459Z,6.08
2022-10-05T02:02:18.797Z,6.28
2022-10-05T02:05:37.067Z,6.27
2022-10-05T02:08:53.583Z,6.11
2022-10-05T02:12:08.101Z,6.07
2022-10-05T02:15:25.458Z,6.02
2022-10-05T02:18:44.156Z,6.06
2022-10-05T02:22:01.282Z,5.95
2022-10-05T02:25:14.765Z,5.92
2022-10-05T02:28:29.324Z,5.88
2022-10-05T02:31:46.100Z,5.93
2022-10-05T02:35:05.142Z,5.94
2022-10-05T02:38:25.557Z,5.97
2022-10-05T02:41:52.665Z,5.97
2022-10-05T02:45:18.379Z,5.96
2022-10-05T02:48:40.701Z,5.90
2022-10-05T02:52:01.020Z,5.83
2022-10-05T02:55:20.437Z,5.78
2022-10-05T02:58:43.046Z,5.83
2022-10-05T03:01:55.964Z,5.77
2022-10-05T03:05:19.812Z,5.73
2022-10-05T03:08:41.061Z,5.73
2022-10-05T03:12:02.233Z,5.85
2022-10-05T03:15:35.416Z,5.96
2022-10-05T03:19:00.744Z,5.83
2022-10-05T03:22:28.417Z,5.66
2022-10-05T03:26:04.055Z,5.74
2022-10-05T03:29:30.449Z,5.71
2022-10-05T03:32:56.255Z,5.70
2022-10-05T03:36:17.323Z,5.67
2022-10-05T03:39:36.397Z,5.63
2022-10-05T03:43:07.233Z,5.63
2022-10-05T03:46:30.972Z,5.60
2022-10-05T03:50:17.202Z,5.56
2022-10-05T03:53:33.148Z,5.60
2022-10-05T03:56:49.903Z,5.55
2022-10-05T04:00:06.850Z,5.56
2022-10-05T04:03:38.325Z,5.56
2022-10-05T04:06:51.963Z,5.48
2022-10-05T04:10:06.991Z,5.53
2022-10-05T04:13:26.545Z,5.54
2022-10-05T04:16:44.568Z,5.59
2022-10-05T04:20:03.445Z,5.67
2022-10-05T04:23:27.053Z,5.71
2022-10-05T04:26:45.198Z,5.86
2022-10-05T04:30:03.396Z,5.73
2022-10-05T04:33:16.013Z,5.81
2022-10-05T04:36:35.188Z,5.73
2022-10-05T04:40:00.172Z,5.75
2022-10-05T04:43:25.340Z,5.84
2022-10-05T04:46:51.566Z,5.83
2022-10-05T04:50:21.877Z,5.82
2022-10-05T04:53:55.325Z,5.91
2022-10-05T04:57:12.992Z,5.74
2022-10-05T05:00:28.910Z,5.77
2022-10-05T05:04:12.091Z,5.87
2022-10-05T05:07:41.575Z,6.02
2022-10-05T05:11:23.689Z,5.93
2022-10-05T05:15:04.083Z,6.00
2022-10-05T05:18:58.682Z,6.14
2022-10-05T05:22:21.307Z,5.99
2022-10-05T05:25:45.289Z,6.03
2022-10-05T05:29:10.038Z,6.08
2022-10-05T05:32:30.902Z,6.14
2022-10-05T05:36:11.254Z,6.20
2022-10-05T05:39:31.811Z,6.23
2022-10-05T05:42:56.784Z,6.34
2022-10-05T05:46:18.237Z,6.41
2022-10-05T05:49:42.774Z,6.55
2022-10-05T05:52:59.659Z,6.61
2022-10-05T05:56:13.363Z,6.58
2022-10-05T05:59:34.287Z,6.68
2022-10-05T06:02:50.692Z,6.78
2022-10-05T06:06:05.338Z,6.79
2022-10-05T06:09:24.443Z,6.84
2022-10-05T06:12:51.677Z,6.95
2022-10-05T06:16:13.864Z,7.00
2022-10-05T06:19:25.372Z,7.21
2022-10-05T06:22:42.046Z,7.26
2022-10-05T06:26:11.040Z,7.27
2022-10-05T06:29:27.961Z,7.37
2022-10-05T06:33:06.162Z,7.33
2022-10-05T06:36:33.752Z,7.41
2022-10-05T06:40:10.287Z,7.62
2022-10-05T06:43:56.017Z,7.81
2022-10-05T06:47:37.722Z,8.03
2022-10-05T06:51:05.721Z,8.13
2022-10-05T06:54:53.249Z,8.23
2022-10-05T06:58:22.347Z,8.60
2022-10-05T07:01:52.068Z,8.78
2022-10-05T07:05:45.972Z,9.29
2022-10-05T07:09:22.197Z,9.90
2022-10-05T07:13:07.355Z,9.95
2022-10-05T07:16:31.777Z,9.95
2022-10-05T07:19:52.579Z,10.22
2022-10-05T07:23:28.722Z,10.42
2022-10-05T07:26:47.549Z,10.58
2022-10-05T07:30:04.683Z,10.82
2022-10-05T07:33:26.191Z,11.04
2022-10-05T07:37:03.310Z,11.30
2022-10-05T07:40:20.529Z,11.55
2022-10-05T07:44:01.538Z,11.71
2022-10-05T07:47:25.844Z,11.92
2022-10-05T07:50:41.474Z,12.15
2022-10-05T07:54:06.594Z,12.28
2022-10-05T07:57:25.273Z,12.57
2022-10-05T08:00:59.803Z,12.77
2022-10-05T08:04:18.050Z,13.02
2022-10-05T08:07:26.645Z,13.32
2022-10-05T08:10:46.109Z,13.54
2022-10-05T08:14:01.960Z,13.84
2022-10-05T08:17:26.580Z,14.13
2022-10-05T08:20:46.827Z,14.46
2022-10-05T08:24:05.204Z,14.67
2022-10-05T08:27:22.012Z,14.79
2022-10-05T08:30:37.008Z,14.92
2022-10-05T08:34:02.643Z,15.11
2022-10-05T08:37:20.129Z,15.41
2022-10-05T08:41:01.986Z,15.83
2022-10-05T08:44:55.088Z,16.02
2022-10-05T08:48:43.944Z,16.22
2022-10-05T08:52:29.946Z,16.44
2022-10-05T08:55:57.609Z,16.68
2022-10-05T08:59:47.419Z,16.86
2022-10-05T09:03:36.198Z,16.94
2022-10-05T09:07:11.061Z,17.10
2022-10-05T09:11:11.008Z,17.28
2022-10-05T09:14:40.676Z,17.55
2022-10-05T09:18:38.462Z,17.95
2022-10-05T09:21:59.256Z,18.23
2022-10-05T09:25:24.706Z,18.50
2022-10-05T09:28:55.920Z,18.68
2022-10-05T09:32:51.630Z,18.90
2022-10-05T09:37:05.441Z,19.03
2022-10-05T09:40:56.824Z,19.17
2022-10-05T09:44:42.664Z,19.09
2022-10-05T09:48:38.482Z,19.27
2022-10-05T09:52:19.973Z,19.32
2022-10-05T09:56:21.133Z,19.42
2022-10-05T10:00:16.232Z,19.66
2022-10-05T10:04:01.270Z,19.91
2022-10-05T10:07:54.122Z,19.91
2022-10-05T10:11:35.431Z,20.07
2022-10-05T10:15:57.629Z,20.03
2022-10-05T10:19:41.276Z,20.09
2022-10-05T10:23:11.336Z,20.26
2022-10-05T10:27:10.565Z,20.31
2022-10-05T10:30:47.669Z,20.56
2022-10-05T10:34:38.708Z,20.53
2022-10-05T10:38:28.513Z,20.49
2022-10-05T10:42:09.911Z,20.80
2022-10-05T10:45:44.044Z,20.97
2022-10-05T10:49:24.262Z,20.94
2022-10-05T10:52:54.787Z,20.79
2022-10-05T10:56:30.129Z,20.90
2022-10-05T11:00:28.246Z,21.23
2022-10-05T11:04:20.148Z,21.50
2022-10-05T11:08:12.586Z,21.36
2022-10-05T11:11:58.966Z,21.41
2022-10-05T11:15:41.318Z,21.48
2022-10-05T11:19:20.681Z,21.74
2022-10-05T11:23:00.230Z,22.13
2022-10-05T11:26:33.563Z,21.78
2022-10-05T11:30:48.892Z,21.81
2022-10-05T11:34:44.266Z,22.08
2022-10-05T11:39:02.348Z,22.10
2022-10-05T11:42:57.631Z,22.08
2022-10-05T11:46:17.918Z,21.97
2022-10-05T11:49:43.201Z,22.27
2022-10-05T11:53:00.166Z,22.09
2022-10-05T11:56:20.433Z,22.29
2022-10-05T11:59:37.781Z,22.05
2022-10-05T12:03:23.807Z,22.18
2022-10-05T12:07:07.772Z,22.33
2022-10-05T12:10:32.842Z,22.28
2022-10-05T12:13:48.963Z,22.19
2022-10-05T12:17:06.035Z,22.17
2022-10-05T12:20:22.544Z,22.15
2022-10-05T12:23:41.268Z,22.16
2022-10-05T12:26:58.900Z,22.16
2022-10-05T12:30:17.172Z,22.02
2022-10-05T12:33:34.412Z,22.11
2022-10-05T12:37:04.105Z,21.97
2022-10-05T12:40:37.359Z,21.95
2022-10-05T12:44:04.167Z,22.13
2022-10-05T12:47:23.648Z,22.23
2022-10-05T12:50:38.323Z,22.39
2022-10-05T12:53:58.785Z,22.39
2022-10-05T12:57:21.365Z,22.57
2022-10-05T13:00:35.439Z,22.54
2022-10-05T13:03:53.895Z,22.49
2022-10-05T13:07:42.876Z,22.59
2022-10-05T13:11:02.086Z,22.46
2022-10-05T13:14:38.926Z,22.51
2022-10-05T13:18:02.711Z,22.48
2022-10-05T13:21:19.766Z,22.69
2022-10-05T13:24:39.494Z,22.62
2022-10-05T13:28:06.530Z,22.73
2022-10-05T13:31:24.198Z,22.77
2022-10-05T13:34:41.411Z,22.65
2022-10-05T13:38:04.595Z,22.66
2022-10-05T13:41:25.012Z,22.62
2022-10-05T13:44:44.724Z,22.64
2022-10-05T13:48:19.757Z,22.50
2022-10-05T13:51:39.971Z,22.43
2022-10-05T13:55:00.139Z,22.50
2022-10-05T13:58:25.181Z,22.50
2022-10-05T14:01:45.125Z,22.46
2022-10-05T14:05:01.961Z,22.50
2022-10-05T14:08:18.864Z,22.44
2022-10-05T14:11:34.976Z,22.44
2022-10-05T14:14:51.439Z,22.43
2022-10-05T14:18:00.380Z,22.38
2022-10-05T14:21:23.409Z,22.39
2022-10-05T14:24:44.203Z,22.34
2022-10-05T14:28:23.947Z,22.29
2022-10-05T14:31:37.763Z,22.34
2022-10-05T14:34:56.382Z,22.38
2022-10-05T14:38:21.885Z,22.38
2022-10-05T14:41:35.037Z,22.16
2022-10-05T14:44:46.009Z,22.20
2022-10-05T14:48:04.008Z,22.13
2022-10-05T14:51:28.289Z,22.10
2022-10-05T14:55:00.905Z,22.04
2022-10-05T14:58:30.051Z,22.03
2022-10-05T15:01:49.710Z,21.96
2022-10-05T15:05:05.347Z,21.92
2022-10-05T15:08:39.221Z,21.98
2022-10-05T15:11:54.838Z,21.98
2022-10-05T15:15:15.950Z,21.85
2022-10-05T15:18:40.934Z,21.86
2022-10-05T15:22:26.332Z,21.72
2022-10-05T15:25:43.655Z,21.67
2022-10-05T15:29:03.310Z,21.46
2022-10-05T15:32:32.164Z,21.30
2022-10-05T15:36:04.337Z,21.13
2022-10-05T15:39:27.290Z,20.90
2022-10-05T15:42:41.559Z,20.68
2022-10-05T15:46:04.680Z,20.58
2022-10-05T15:49:33.806Z,20.37
2022-10-05T15:52:50.578Z,20.22
2022-10-05T15:56:09.132Z,20.12
2022-10-05T15:59:31.875Z,19.97
2022-10-05T16:02:52.836Z,19.85
2022-10-05T16:06:28.216Z,19.65
2022-10-05T16:09:56.277Z,19.39
2022-10-05T16:13:22.996Z,19.12
2022-10-05T16:16:42.819Z,18.85
2022-10-05T16:20:16.996Z,18.78
2022-10-05T16:23:41.676Z,18.56
2022-10-05T16:26:59.452Z,18.27
2022-10-05T16:30:15.596Z,18.01
2022-10-05T16:33:37.190Z,17.90
2022-10-05T16:37:03.165Z,17.60
2022-10-05T16:40:21.635Z,17.31
2022-10-05T16:43:44.842Z,17.07
2022-10-05T16:47:02.566Z,16.84
2022-10-05T16:50:24.230Z,16.63
2022-10-05T16:53:42.239Z,16.48
2022-10-05T16:56:57.291Z,16.32
2022-10-05T17:00:18.999Z,16.16
2022-10-05T17:03:51.569Z,15.98
2022-10-05T17:07:41.248Z,15.88
2022-10-05T17:14:35.560Z,15.41
2022-10-05T17:18:23.506Z,15.27
2022-10-05T17:21:44.446Z,15.09
2022-10-05T17:25:06.841Z,14.97
2022-10-05T17:28:36.673Z,14.85
2022-10-05T17:32:14.005Z,14.71
2022-10-05T17:35:42.047Z,14.57
2022-10-05T17:38:53.838Z,14.47
2022-10-05T17:42:46.334Z,14.46
2022-10-05T17:46:00.501Z,14.31
2022-10-05T17:49:39.825Z,14.30
2022-10-05T17:53:39.968Z,14.18
2022-10-05T17:57:23.372Z,14.08
2022-10-05T18:00:44.627Z,14.05
2022-10-05T18:03:56.186Z,14.07
2022-10-05T18:07:21.315Z,14.00
2022-10-05T18:10:33.042Z,13.91
2022-10-05T18:13:50.415Z,13.97
2022-10-05T18:17:02.431Z,13.80
2022-10-05T18:20:32.432Z,13.71
2022-10-05T18:23:50.812Z,13.62
2022-10-05T18:27:34.271Z,13.38
2022-10-05T18:31:05.334Z,13.24
2022-10-05T18:34:31.033Z,13.22
2022-10-05T18:37:57.965Z,13.15
2022-10-05T18:41:19.526Z,13.39
2022-10-05T18:44:40.939Z,13.04
2022-10-05T18:48:10.003Z,12.75
2022-10-05T18:51:29.805Z,12.43
2022-10-05T18:54:59.393Z,12.29
2022-10-05T18:58:26.740Z,12.20
2022-10-05T19:02:13.990Z,12.17
2022-10-05T19:05:48.410Z,12.11
2022-10-05T19:09:11.409Z,12.10
2022-10-05T19:12:41.346Z,11.96
2022-10-05T19:16:06.462Z,12.05
2022-10-05T19:19:53.839Z,11.94
2022-10-05T19:23:27.123Z,11.86
2022-10-05T19:26:57.396Z,11.86
2022-10-05T19:30:24.201Z,11.91
2022-10-05T19:33:56.536Z,11.82
2022-10-05T19:37:14.719Z,11.76
2022-10-05T19:40:35.220Z,12.10
2022-10-05T19:44:09.063Z,11.83
2022-10-05T19:47:38.883Z,11.67
2022-10-05T19:50:59.327Z,11.66
2022-10-05T19:54:24.886Z,11.69
2022-10-05T19:57:33.551Z,11.62
2022-10-05T20:00:45.665Z,11.60
2022-10-05T20:03:58.166Z,11.55
2022-10-05T20:07:06.665Z,11.51
2022-10-05T20:10:33.668Z,11.47
2022-10-05T20:13:44.778Z,11.38
2022-10-05T20:17:36.231Z,11.43
2022-10-05T20:20:48.646Z,11.35
2022-10-05T20:24:12.777Z,11.38
2022-10-05T20:27:48.093Z,11.29
2022-10-05T20:30:56.516Z,11.25
2022-10-05T20:34:05.352Z,11.24
2022-10-05T20:37:18.489Z,11.32
2022-10-05T20:40:27.536Z,11.38
2022-10-05T20:43:38.969Z,11.24
2022-10-05T20:46:47.683Z,11.32
2022-10-05T20:49:56.432Z,11.21
2022-10-05T20:53:11.580Z,11.46
2022-10-05T20:56:20.366Z,11.47
2022-10-05T20:59:31.134Z,11.39
2022-10-05T21:02:42.383Z,11.36
2022-10-05T21:05:51.837Z,11.37
2022-10-05T21:09:03.275Z,11.18
2022-10-05T21:12:13.822Z,11.05
2022-10-05T21:15:23.365Z,11.06
2022-10-05T21:18:32.135Z,10.98
2022-10-05T21:21:41.570Z,10.91
2022-10-05T21:24:51.068Z,10.93
2022-10-05T21:27:59.439Z,10.87
2022-10-05T21:31:08.584Z,11.01
2022-10-05T21:34:17.142Z,10.96
2022-10-05T21:37:25.517Z,10.75
2022-10-05T21:40:36.799Z,10.65
2022-10-05T21:43:45.734Z,10.55
2022-10-05T21:46:54.071Z,10.48
2022-10-05T21:50:08.619Z,10.41
2022-10-05T21:53:21.528Z,10.36
2022-10-05T21:56:36.284Z,10.37
2022-10-05T21:59:45.388Z,10.36
2022-10-05T22:02:53.673Z,10.26
2022-10-05T22:06:03.682Z,10.17
2022-10-05T22:09:12.171Z,10.11
2022-10-05T22:12:22.350Z,10.15
2022-10-05T22:15:32.424Z,10.23
2022-10-05T22:18:41.220Z,10.29
2022-10-05T22:21:49.475Z,10.37
2022-10-05T22:24:57.786Z,10.13
2022-10-05T22:28:11.599Z,10.04
2022-10-05T22:31:20.513Z,9.95
2022-10-05T22:34:29.239Z,9.95
2022-10-05T22:37:38.781Z,9.94
2022-10-05T22:40:47.491Z,9.92
2022-10-05T22:43:57.370Z,9.89
2022-10-05T22:47:05.722Z,9.87
2022-10-05T22:50:13.899Z,9.75
2022-10-05T22:53:22.336Z,9.74
2022-10-05T22:56:30.840Z,9.74
2022-10-05T22:59:40.615Z,9.65
2022-10-05T23:02:48.974Z,9.57
2022-10-05T23:06:03.180Z,9.56
2022-10-05T23:09:11.396Z,9.53
2022-10-05T23:12:19.565Z,9.48
2022-10-05T23:15:29.302Z,9.43
2022-10-05T23:18:38.266Z,9.41
2022-10-05T23:21:57.724Z,9.34
2022-10-05T23:25:08.022Z,9.30
2022-10-05T23:28:27.315Z,9.29
2022-10-05T23:31:37.332Z,9.29
2022-10-05T23:34:45.431Z,9.26
2022-10-05T23:37:53.590Z,9.22
2022-10-05T23:41:02.552Z,9.18
2022-10-05T23:44:10.625Z,9.18
2022-10-05T23:47:20.114Z,9.15
2022-10-05T23:50:28.201Z,9.12
2022-10-05T23:53:38.319Z,9.09
2022-10-05T23:56:46.529Z,9.09
2022-10-05T23:59:56.188Z,9.03
